Perham, Minnesota
Current Conditions -  °F | °C
As of 7:14 PM on Sunday 23 Nov 2014 (Local Time) from KADC Reporting Station
Overcast Overcast  
Wind Chill: 21°   Ceiling: 3400
Heat Index: 30°   Visibility: 10mi
Dew Point: 25°   Wind: 12mph
Humidity: 80%   Direction: 300°WNW
Pressure: 29.44"   Gusts: 22mph
Location:  46.59°N, 95.57°W
Report Text: KADC 240114Z AUTO 30010G19KT 10SM SCT024 OVC034 M01/M04 A2944 RMK AO2
Loading
Personal Weather Stations






























Interactive Weather Map New forecast layout! Learn more

10-Day Weather Forecast

Advertisements
Track Severe Weather on mobile